Time;durP1;ratioP1;P1;durP2;ratioP2;P2;SDS_P1;SDS_P2;PMS_P1;PMS_P2;Temp;Humidity;BMP_temperature;BMP_pressure;BME280_temperature;BME280_humidity;BME280_pressure;Samples;Min_cycle;Max_cycle;Signal;HPM_P1;HPM_P2
2022/05/01 00:01:58;;;;;;;36.10;32.75;;;;;;;;;;5083998;28;24445;-47
2022/05/01 00:04:23;;;;;;;37.50;33.80;;;;;;;;;;5084644;28;24600;-46
2022/05/01 00:06:49;;;;;;;37.40;33.90;;;;;;;;;;5082777;28;24414;-46
2022/05/01 00:09:14;;;;;;;37.13;33.53;;;;;;;;;;5082821;28;24426;-47
2022/05/01 00:11:41;;;;;;;37.55;34.15;;;;;;;;;;5083011;28;24509;-46
2022/05/01 00:14:06;;;;;;;37.38;33.58;;;;;;;;;;5081873;28;24426;-47
2022/05/01 00:16:31;;;;;;;36.60;33.10;;;;;;;;;;5079444;28;24430;-47
2022/05/01 00:18:56;;;;;;;36.08;32.67;;;;;;;;;;5084002;28;24501;-47
2022/05/01 00:21:21;;;;;;;35.30;31.98;;;;;;;;;;5082640;28;24864;-47
2022/05/01 00:23:46;;;;;;;35.20;31.90;;;;;;;;;;5082877;28;24430;-47
2022/05/01 00:26:12;;;;;;;34.50;31.30;;;;;;;;;;5082602;28;24509;-47
2022/05/01 00:28:38;;;;;;;32.03;28.93;;;;;;;;;;5083409;28;24415;-47
2022/05/01 00:31:06;;;;;;;32.85;29.88;;;;;;;;;;5079754;28;24551;-47
2022/05/01 00:36:28;;;;;;;32.27;29.37;;;;;;;;;;5081970;28;24449;-47
2022/05/01 00:38:54;;;;;;;32.20;29.40;;;;;;;;;;5083339;28;24517;-47
2022/05/01 00:41:21;;;;;;;28.80;26.40;;;;;;;;;;5080459;28;24499;-47
2022/05/01 00:43:56;;;;;;;29.90;27.15;;;;;;;;;;5084128;28;24456;-47
2022/05/01 00:46:21;;;;;;;29.73;26.83;;;;;;;;;;5082168;28;24434;-46
2022/05/01 00:48:46;;;;;;;29.52;26.92;;;;;;;;;;5082949;28;24513;-47
2022/05/01 00:51:11;;;;;;;29.70;26.90;;;;;;;;;;5082696;28;24437;-47
2022/05/01 00:53:37;;;;;;;27.85;25.30;;;;;;;;;;5082503;28;25268;-47
2022/05/01 00:56:02;;;;;;;27.65;25.05;;;;;;;;;;5075689;28;24426;-47
2022/05/01 00:58:28;;;;;;;28.47;25.90;;;;;;;;;;5081307;28;24822;-47
2022/05/01 01:00:53;;;;;;;27.33;24.92;;;;;;;;;;5080957;28;24429;-46
2022/05/01 01:03:19;;;;;;;28.50;25.83;;;;;;;;;;5082527;28;25071;-46
2022/05/01 01:05:44;;;;;;;28.83;26.23;;;;;;;;;;5079598;28;25129;-47
2022/05/01 01:08:10;;;;;;;28.00;25.33;;;;;;;;;;5081525;28;24481;-47
2022/05/01 01:10:35;;;;;;;28.23;25.53;;;;;;;;;;5078628;28;24425;-46
2022/05/01 01:13:00;;;;;;;29.60;26.70;;;;;;;;;;5080045;28;25205;-46
2022/05/01 01:15:29;;;;;;;28.13;25.60;;;;;;;;;;5080305;28;24504;-47
2022/05/01 01:17:55;;;;;;;28.03;25.53;;;;;;;;;;5084093;28;24425;-46
2022/05/01 01:20:24;;;;;;;27.87;25.37;;;;;;;;;;5083956;28;25010;-46
2022/05/01 01:22:50;;;;;;;27.05;24.55;;;;;;;;;;5083816;28;24445;-47
2022/05/01 01:25:17;;;;;;;27.00;24.60;;;;;;;;;;5079881;28;24479;-46
2022/05/01 01:27:42;;;;;;;27.10;24.70;;;;;;;;;;5080759;28;24418;-47
2022/05/01 01:32:52;;;;;;;27.48;24.88;;;;;;;;;;5074879;28;24990;-47
2022/05/01 01:35:19;;;;;;;27.92;25.33;;;;;;;;;;5081642;28;24430;-47
2022/05/01 01:37:45;;;;;;;27.23;24.73;;;;;;;;;;5083438;28;24471;-47
2022/05/01 01:40:13;;;;;;;28.20;25.50;;;;;;;;;;5084110;28;25031;-47
2022/05/01 01:42:39;;;;;;;27.13;24.65;;;;;;;;;;5083006;28;24564;-46
2022/05/01 01:45:05;;;;;;;27.67;25.02;;;;;;;;;;5083985;28;24418;-46
2022/05/01 01:47:30;;;;;;;25.90;23.60;;;;;;;;;;5084359;28;24483;-47
2022/05/01 01:49:55;;;;;;;26.67;24.17;;;;;;;;;;5082268;28;24448;-47
2022/05/01 01:52:21;;;;;;;25.20;22.90;;;;;;;;;;5083348;28;24911;-46
2022/05/01 01:54:46;;;;;;;26.52;24.02;;;;;;;;;;5084606;28;24549;-47
2022/05/01 01:57:11;;;;;;;27.20;24.70;;;;;;;;;;5080165;28;24452;-47
2022/05/01 01:59:36;;;;;;;26.80;24.30;;;;;;;;;;5080357;28;24513;-46
2022/05/01 02:02:01;;;;;;;26.20;23.80;;;;;;;;;;5081456;28;24469;-46
2022/05/01 02:04:27;;;;;;;26.90;24.40;;;;;;;;;;5081775;28;24429;-46
2022/05/01 02:06:52;;;;;;;26.37;24.00;;;;;;;;;;5080735;28;24425;-46
2022/05/01 02:09:18;;;;;;;26.83;24.43;;;;;;;;;;5082569;28;24422;-46
2022/05/01 02:11:43;;;;;;;27.27;24.77;;;;;;;;;;5084093;28;24426;-46
2022/05/01 02:14:10;;;;;;;25.80;23.40;;;;;;;;;;5080908;28;24430;-46
2022/05/01 02:16:35;;;;;;;26.67;24.27;;;;;;;;;;5075447;28;24509;-46
2022/05/01 02:19:01;;;;;;;25.37;23.07;;;;;;;;;;5079978;28;24522;-46
2022/05/01 02:21:35;;;;;;;26.20;23.80;;;;;;;;;;5082952;28;24438;-45
2022/05/01 02:24:01;;;;;;;26.83;24.37;;;;;;;;;;5084503;28;24486;-46
2022/05/01 02:26:26;;;;;;;26.23;23.92;;;;;;;;;;5087556;28;24429;-45
2022/05/01 02:28:51;;;;;;;26.40;23.90;;;;;;;;;;5083087;28;24789;-46
2022/05/01 02:31:17;;;;;;;25.95;23.70;;;;;;;;;;5086656;28;24509;-45
2022/05/01 02:33:42;;;;;;;26.17;23.77;;;;;;;;;;5085544;28;24427;-46
2022/05/01 02:36:07;;;;;;;26.67;24.25;;;;;;;;;;5086369;28;24968;-46
2022/05/01 02:38:34;;;;;;;25.50;23.10;;;;;;;;;;5087656;28;24715;-46
2022/05/01 02:40:59;;;;;;;27.00;24.33;;;;;;;;;;5086042;28;25013;-46
2022/05/01 02:43:25;;;;;;;27.50;25.10;;;;;;;;;;5084622;28;24418;-49
2022/05/01 02:45:50;;;;;;;25.38;22.92;;;;;;;;;;5085318;28;24429;-48
2022/05/01 02:48:15;;;;;;;24.90;22.60;;;;;;;;;;5081782;28;24430;-46
2022/05/01 02:50:41;;;;;;;25.70;23.30;;;;;;;;;;5085241;28;24418;-46
2022/05/01 02:53:06;;;;;;;25.10;22.80;;;;;;;;;;5086114;28;24479;-46
2022/05/01 02:55:32;;;;;;;25.90;23.60;;;;;;;;;;5084340;28;24928;-46
2022/05/01 02:57:57;;;;;;;25.30;22.80;;;;;;;;;;5077353;28;24428;-46
2022/05/01 03:00:22;;;;;;;24.90;22.70;;;;;;;;;;5081467;28;25305;-46
2022/05/01 03:02:48;;;;;;;25.95;23.58;;;;;;;;;;5085068;28;24971;-46
2022/05/01 03:05:13;;;;;;;26.88;24.38;;;;;;;;;;5086294;28;24406;-46
2022/05/01 03:07:38;;;;;;;24.90;22.70;;;;;;;;;;5084683;28;24475;-46
2022/05/01 03:10:04;;;;;;;26.20;23.70;;;;;;;;;;5083940;28;24973;-46
2022/05/01 03:12:29;;;;;;;26.63;24.17;;;;;;;;;;5083503;28;24429;-46
2022/05/01 03:14:54;;;;;;;24.30;22.02;;;;;;;;;;5084530;28;24467;-46
2022/05/01 03:17:19;;;;;;;26.10;23.80;;;;;;;;;;5086242;28;24448;-46
2022/05/01 03:22:30;;;;;;;24.73;22.53;;;;;;;;;;5084233;28;24781;-46
2022/05/01 03:24:55;;;;;;;25.10;22.90;;;;;;;;;;5084362;28;24425;-46
2022/05/01 03:27:20;;;;;;;25.43;23.10;;;;;;;;;;5082219;28;24427;-46
2022/05/01 03:30:15;;;;;;;24.45;22.25;;;;;;;;;;5082820;28;24460;-46
2022/05/01 03:32:31;;;;;;;24.80;22.50;;;;;;;;;;5084308;28;24440;-46
2022/05/01 03:34:58;;;;;;;24.65;22.35;;;;;;;;;;5080773;28;24445;-45
2022/05/01 03:37:24;;;;;;;24.17;21.97;;;;;;;;;;5085073;28;24414;-46
2022/05/01 03:39:49;;;;;;;25.10;22.80;;;;;;;;;;5081910;28;24870;-45
2022/05/01 03:42:14;;;;;;;25.03;22.90;;;;;;;;;;5083715;28;24525;-46
2022/05/01 03:44:39;;;;;;;26.10;23.80;;;;;;;;;;5083788;28;24425;-46
2022/05/01 03:47:04;;;;;;;25.67;23.27;;;;;;;;;;5082867;28;24410;-45
2022/05/01 03:49:29;;;;;;;25.50;23.10;;;;;;;;;;5083874;28;24422;-45
2022/05/01 03:51:56;;;;;;;24.48;22.27;;;;;;;;;;5082848;28;25035;-45
2022/05/01 03:54:21;;;;;;;24.83;22.63;;;;;;;;;;5085365;28;24430;-45
2022/05/01 03:56:47;;;;;;;23.88;21.77;;;;;;;;;;5083543;28;24475;-46
2022/05/01 03:59:12;;;;;;;24.00;21.80;;;;;;;;;;5085722;28;24468;-45
2022/05/01 04:01:37;;;;;;;23.60;21.40;;;;;;;;;;5085303;28;24418;-46
2022/05/01 04:04:02;;;;;;;24.00;21.80;;;;;;;;;;5077676;28;24971;-48
2022/05/01 04:06:27;;;;;;;23.77;21.70;;;;;;;;;;5080871;28;24433;-46
2022/05/01 04:08:53;;;;;;;22.63;20.73;;;;;;;;;;5084041;28;24413;-46
2022/05/01 04:11:19;;;;;;;23.50;21.40;;;;;;;;;;5083743;28;24537;-50
2022/05/01 04:13:44;;;;;;;23.45;21.35;;;;;;;;;;5086032;28;24483;-46
2022/05/01 04:16:10;;;;;;;22.95;20.92;;;;;;;;;;5081526;28;25131;-47
2022/05/01 04:18:35;;;;;;;23.63;21.43;;;;;;;;;;5084717;28;24430;-45
2022/05/01 04:21:00;;;;;;;22.37;20.47;;;;;;;;;;5083940;28;24429;-46
2022/05/01 04:23:26;;;;;;;22.83;20.83;;;;;;;;;;5084879;28;24900;-46
2022/05/01 04:25:51;;;;;;;21.57;19.77;;;;;;;;;;5085086;28;24418;-46
2022/05/01 04:28:16;;;;;;;22.57;20.53;;;;;;;;;;5084571;28;24986;-46
2022/05/01 04:30:42;;;;;;;21.20;19.37;;;;;;;;;;5083362;28;24442;-46
2022/05/01 04:33:13;;;;;;;21.42;19.42;;;;;;;;;;5084416;28;24525;-46
2022/05/01 04:35:40;;;;;;;21.80;19.70;;;;;;;;;;5078242;28;24493;-46
2022/05/01 04:38:07;;;;;;;20.25;18.35;;;;;;;;;;5085001;28;24456;-46
2022/05/01 04:40:36;;;;;;;21.58;19.58;;;;;;;;;;5082119;28;24418;-46
2022/05/01 04:43:01;;;;;;;20.85;18.75;;;;;;;;;;5083541;28;24486;-46
2022/05/01 04:45:27;;;;;;;19.57;17.67;;;;;;;;;;5083277;28;24506;-46
2022/05/01 04:47:52;;;;;;;19.43;17.73;;;;;;;;;;5083350;28;24424;-45
2022/05/01 04:50:19;;;;;;;19.30;17.40;;;;;;;;;;5083383;28;24419;-46
2022/05/01 04:52:44;;;;;;;17.70;16.10;;;;;;;;;;5082085;28;24875;-46
2022/05/01 04:55:09;;;;;;;17.83;16.20;;;;;;;;;;5088001;28;24394;-46
2022/05/01 04:57:36;;;;;;;18.60;17.00;;;;;;;;;;5088405;28;24536;-46
2022/05/01 05:00:02;;;;;;;18.10;16.50;;;;;;;;;;5084054;28;24430;-45
2022/05/01 05:02:38;;;;;;;18.87;17.07;;;;;;;;;;5084863;28;24429;-46
2022/05/01 05:05:04;;;;;;;19.17;17.37;;;;;;;;;;5084933;28;24832;-47
2022/05/01 05:07:29;;;;;;;19.13;17.43;;;;;;;;;;5086289;28;24402;-47
2022/05/01 05:09:55;;;;;;;18.55;16.95;;;;;;;;;;5080513;28;25422;-46
2022/05/01 05:12:20;;;;;;;17.92;16.33;;;;;;;;;;5078858;28;25374;-46
2022/05/01 05:14:47;;;;;;;19.10;17.50;;;;;;;;;;5079172;28;25012;-46
2022/05/01 05:17:12;;;;;;;18.77;17.00;;;;;;;;;;5082382;28;24436;-46
2022/05/01 05:19:39;;;;;;;17.87;16.07;;;;;;;;;;5080592;28;25082;-46
2022/05/01 05:22:04;;;;;;;16.35;14.95;;;;;;;;;;5082918;28;24434;-45
2022/05/01 05:24:29;;;;;;;16.90;15.40;;;;;;;;;;5082963;28;24422;-45
2022/05/01 05:26:55;;;;;;;16.33;14.73;;;;;;;;;;5083003;28;24445;-45
2022/05/01 05:29:20;;;;;;;15.87;14.40;;;;;;;;;;5084135;28;24433;-45
2022/05/01 05:31:45;;;;;;;15.90;14.50;;;;;;;;;;5083875;28;24525;-46
2022/05/01 05:34:10;;;;;;;15.50;14.20;;;;;;;;;;5079830;28;24422;-45
2022/05/01 05:36:35;;;;;;;17.47;15.77;;;;;;;;;;5075976;28;24562;-46
2022/05/01 05:39:00;;;;;;;15.53;14.13;;;;;;;;;;5079797;28;24776;-45
2022/05/01 05:41:26;;;;;;;16.30;14.70;;;;;;;;;;5085554;28;25002;-45
2022/05/01 05:43:51;;;;;;;15.13;13.83;;;;;;;;;;5084268;28;24453;-45
2022/05/01 05:46:17;;;;;;;19.45;17.65;;;;;;;;;;5085919;28;24390;-45
2022/05/01 05:48:42;;;;;;;16.20;14.80;;;;;;;;;;5085964;28;24418;-45
2022/05/01 05:51:07;;;;;;;15.23;13.83;;;;;;;;;;5075432;28;24514;-45
2022/05/01 05:53:32;;;;;;;17.45;15.95;;;;;;;;;;5081672;28;24418;-46
2022/05/01 05:55:58;;;;;;;14.25;13.05;;;;;;;;;;5077095;28;24506;-45
2022/05/01 05:58:23;;;;;;;15.20;13.80;;;;;;;;;;5077086;28;24955;-45
2022/05/01 06:00:48;;;;;;;16.45;14.95;;;;;;;;;;5082799;28;24418;-46
2022/05/01 06:03:14;;;;;;;14.30;13.10;;;;;;;;;;5081313;28;24446;-45
2022/05/01 06:05:39;;;;;;;15.93;14.33;;;;;;;;;;5081783;28;24502;-46
2022/05/01 06:08:04;;;;;;;15.02;13.60;;;;;;;;;;5081737;28;25037;-46
2022/05/01 06:10:30;;;;;;;16.90;15.40;;;;;;;;;;5076921;28;24446;-46
2022/05/01 06:12:55;;;;;;;17.23;15.73;;;;;;;;;;5076776;28;24422;-46
2022/05/01 06:15:20;;;;;;;17.10;15.60;;;;;;;;;;5078487;28;24423;-46
2022/05/01 06:17:45;;;;;;;18.10;16.50;;;;;;;;;;5074933;28;24437;-46
2022/05/01 06:20:10;;;;;;;16.47;15.07;;;;;;;;;;5080672;28;25025;-46
2022/05/01 06:22:36;;;;;;;18.60;16.90;;;;;;;;;;5083813;28;24430;-46
2022/05/01 06:25:01;;;;;;;21.57;19.57;;;;;;;;;;5080118;28;24842;-46
2022/05/01 06:27:26;;;;;;;20.03;18.23;;;;;;;;;;5076748;28;25019;-46
2022/05/01 06:29:51;;;;;;;22.08;20.08;;;;;;;;;;5081440;28;24442;-46
2022/05/01 06:32:17;;;;;;;23.70;21.50;;;;;;;;;;5081580;28;24514;-46
2022/05/01 06:34:42;;;;;;;23.30;21.20;;;;;;;;;;5083268;28;24789;-46
2022/05/01 06:37:07;;;;;;;22.20;20.10;;;;;;;;;;5075518;28;24422;-46
2022/05/01 06:39:33;;;;;;;20.60;18.80;;;;;;;;;;5078782;28;25034;-46
2022/05/01 06:41:58;;;;;;;21.17;19.17;;;;;;;;;;5081502;28;24434;-46
2022/05/01 06:44:23;;;;;;;20.30;18.40;;;;;;;;;;5083140;28;24460;-47
2022/05/01 06:46:48;;;;;;;19.87;17.97;;;;;;;;;;5084612;28;24955;-46
2022/05/01 06:49:13;;;;;;;22.63;20.63;;;;;;;;;;5083944;28;24421;-46
2022/05/01 06:51:38;;;;;;;22.40;20.40;;;;;;;;;;5081421;28;25044;-46
2022/05/01 06:54:07;;;;;;;21.60;19.60;;;;;;;;;;5084481;28;24414;-48
2022/05/01 06:56:32;;;;;;;24.98;22.67;;;;;;;;;;5080329;28;24427;-47
2022/05/01 06:58:57;;;;;;;25.63;23.33;;;;;;;;;;5084865;28;24417;-46
2022/05/01 07:01:22;;;;;;;22.80;20.70;;;;;;;;;;5082938;28;24986;-46
2022/05/01 07:03:47;;;;;;;22.17;20.23;;;;;;;;;;5078836;28;24495;-46
2022/05/01 07:06:12;;;;;;;24.70;22.40;;;;;;;;;;5083847;28;24425;-46
2022/05/01 07:08:38;;;;;;;23.63;21.35;;;;;;;;;;5081367;28;24429;-46
2022/05/01 07:11:03;;;;;;;24.20;22.00;;;;;;;;;;5082386;28;25495;-46
2022/05/01 07:13:28;;;;;;;24.50;22.27;;;;;;;;;;5083515;28;24446;-46
2022/05/01 07:15:53;;;;;;;23.80;21.70;;;;;;;;;;5083987;28;24455;-47
2022/05/01 07:18:18;;;;;;;24.37;22.17;;;;;;;;;;5083309;28;24422;-46
2022/05/01 07:20:45;;;;;;;24.20;22.02;;;;;;;;;;5085015;28;25218;-47
2022/05/01 07:23:10;;;;;;;24.20;21.90;;;;;;;;;;5085544;28;24433;-47
2022/05/01 07:25:35;;;;;;;22.73;20.70;;;;;;;;;;5086646;28;25635;-46
2022/05/01 07:28:00;;;;;;;24.10;21.90;;;;;;;;;;5076737;28;24970;-46
2022/05/01 07:30:26;;;;;;;24.93;22.73;;;;;;;;;;5083388;28;24442;-46
2022/05/01 07:32:51;;;;;;;26.47;24.07;;;;;;;;;;5083912;28;24967;-46
2022/05/01 07:35:16;;;;;;;26.47;24.07;;;;;;;;;;5081478;28;24828;-46
2022/05/01 07:37:41;;;;;;;26.37;24.00;;;;;;;;;;5077931;28;24433;-46
2022/05/01 07:40:07;;;;;;;26.33;23.77;;;;;;;;;;5078589;28;24426;-46
2022/05/01 07:42:32;;;;;;;27.03;24.70;;;;;;;;;;5075915;28;26281;-46
2022/05/01 07:44:58;;;;;;;28.95;26.40;;;;;;;;;;5079696;28;24777;-46
2022/05/01 07:47:23;;;;;;;25.77;23.45;;;;;;;;;;5088071;28;24899;-46
2022/05/01 07:49:48;;;;;;;30.80;27.77;;;;;;;;;;5088632;28;24405;-47
2022/05/01 07:52:13;;;;;;;28.80;26.20;;;;;;;;;;5076197;28;24418;-46
2022/05/01 07:54:39;;;;;;;28.07;25.43;;;;;;;;;;5068578;28;24512;-46
2022/05/01 07:57:04;;;;;;;30.00;27.30;;;;;;;;;;5069091;28;24395;-47
2022/05/01 07:59:29;;;;;;;26.40;24.00;;;;;;;;;;5076505;28;24442;-46
2022/05/01 08:01:54;;;;;;;27.77;25.38;;;;;;;;;;5086461;28;24819;-46
2022/05/01 08:04:29;;;;;;;28.80;26.13;;;;;;;;;;5088529;28;24397;-46
2022/05/01 08:06:55;;;;;;;26.83;24.43;;;;;;;;;;5088749;28;24479;-47
2022/05/01 08:09:20;;;;;;;26.90;24.40;;;;;;;;;;5088196;28;24438;-47
2022/05/01 08:11:46;;;;;;;26.20;23.80;;;;;;;;;;5070266;28;24980;-47
2022/05/01 08:14:12;;;;;;;26.60;23.90;;;;;;;;;;5068054;28;24398;-47
2022/05/01 08:16:38;;;;;;;26.10;23.42;;;;;;;;;;5068502;28;24398;-46
2022/05/01 08:21:47;;;;;;;23.33;21.15;;;;;;;;;;5071879;28;24584;-46
2022/05/01 08:24:12;;;;;;;27.17;24.77;;;;;;;;;;5068111;28;24478;-46
2022/05/01 08:26:37;;;;;;;27.42;24.83;;;;;;;;;;5068042;28;24375;-47
2022/05/01 08:29:02;;;;;;;27.30;24.90;;;;;;;;;;5070780;28;24972;-46
2022/05/01 08:31:28;;;;;;;26.27;23.97;;;;;;;;;;5079417;28;24418;-47
2022/05/01 08:33:54;;;;;;;22.80;20.60;;;;;;;;;;5068367;28;24818;-46
2022/05/01 08:36:19;;;;;;;27.70;25.20;;;;;;;;;;5072033;28;25102;-46
2022/05/01 08:38:45;;;;;;;22.10;20.10;;;;;;;;;;5075267;28;24426;-47
2022/05/01 08:41:10;;;;;;;19.83;18.13;;;;;;;;;;5087190;28;24453;-46
2022/05/01 08:43:36;;;;;;;25.27;22.97;;;;;;;;;;5087687;28;24544;-47
2022/05/01 08:46:20;;;;;;;23.43;21.33;;;;;;;;;;5067898;28;24419;-47
2022/05/01 08:48:45;;;;;;;21.75;19.75;;;;;;;;;;5070036;28;25037;-46
2022/05/01 08:51:11;;;;;;;22.30;20.10;;;;;;;;;;5084429;28;24450;-46
2022/05/01 08:53:37;;;;;;;21.13;18.93;;;;;;;;;;5075530;28;24409;-46
2022/05/01 08:56:02;;;;;;;19.42;17.73;;;;;;;;;;5069715;28;25167;-46
2022/05/01 08:58:29;;;;;;;20.93;18.93;;;;;;;;;;5087837;28;24402;-46
2022/05/01 09:00:54;;;;;;;17.70;16.00;;;;;;;;;;5067733;28;24413;-47
2022/05/01 09:03:19;;;;;;;18.77;17.08;;;;;;;;;;5068039;28;24431;-46
2022/05/01 09:05:44;;;;;;;18.70;17.00;;;;;;;;;;5066813;28;24988;-46
2022/05/01 09:08:10;;;;;;;19.17;17.27;;;;;;;;;;5067561;28;24390;-46
2022/05/01 09:10:36;;;;;;;17.80;16.10;;;;;;;;;;5067016;28;24473;-46
2022/05/01 09:13:01;;;;;;;17.00;15.30;;;;;;;;;;5066998;28;24973;-46
2022/05/01 09:15:30;;;;;;;16.52;14.82;;;;;;;;;;5086510;28;24444;-47
2022/05/01 09:17:58;;;;;;;17.50;15.80;;;;;;;;;;5067510;28;24395;-46
2022/05/01 09:20:23;;;;;;;18.88;17.17;;;;;;;;;;5066804;28;24438;-46
2022/05/01 09:22:50;;;;;;;19.00;17.10;;;;;;;;;;5066459;28;24453;-46
2022/05/01 09:25:16;;;;;;;17.23;15.63;;;;;;;;;;5081830;28;24405;-46
2022/05/01 09:27:41;;;;;;;19.15;17.35;;;;;;;;;;5086858;28;24829;-47
2022/05/01 09:30:10;;;;;;;19.60;17.70;;;;;;;;;;5070096;28;24434;-46
2022/05/01 09:32:37;;;;;;;21.95;19.85;;;;;;;;;;5065674;28;24792;-46
2022/05/01 09:35:02;;;;;;;19.15;17.40;;;;;;;;;;5075332;28;24513;-47
2022/05/01 09:37:27;;;;;;;17.38;15.77;;;;;;;;;;5066488;28;24507;-47
2022/05/01 09:39:52;;;;;;;17.30;15.80;;;;;;;;;;5067072;28;24919;-47
2022/05/01 09:42:21;;;;;;;16.35;14.85;;;;;;;;;;5067231;28;24509;-46
2022/05/01 09:45:03;;;;;;;18.20;16.50;;;;;;;;;;5073227;28;24554;-47
2022/05/01 09:47:44;;;;;;;17.10;15.50;;;;;;;;;;5086777;28;24404;-46
2022/05/01 09:50:10;;;;;;;20.90;18.90;;;;;;;;;;5087035;28;24942;-46
2022/05/01 09:52:52;;;;;;;17.55;16.05;;;;;;;;;;5076662;28;24964;-46
2022/05/01 09:55:17;;;;;;;17.58;16.02;;;;;;;;;;5072961;28;24472;-46
2022/05/01 09:57:42;;;;;;;18.27;16.58;;;;;;;;;;5086675;28;24394;-46
2022/05/01 10:00:08;;;;;;;16.94;15.44;;;;;;;;;;5084574;28;24470;-46
2022/05/01 10:02:33;;;;;;;19.17;17.30;;;;;;;;;;5086429;28;24964;-46
2022/05/01 10:05:03;;;;;;;17.20;15.70;;;;;;;;;;5086994;28;24478;-46
2022/05/01 10:07:31;;;;;;;18.33;16.75;;;;;;;;;;5086097;28;24411;-46
2022/05/01 10:09:56;;;;;;;16.80;15.13;;;;;;;;;;5084817;28;24632;-46
2022/05/01 10:12:22;;;;;;;17.17;15.57;;;;;;;;;;5085916;28;24970;-48
2022/05/01 10:14:48;;;;;;;16.40;15.10;;;;;;;;;;5086656;28;24428;-46
2022/05/01 10:17:13;;;;;;;14.98;13.52;;;;;;;;;;5086172;28;24639;-46
2022/05/01 10:19:39;;;;;;;17.63;16.02;;;;;;;;;;5072479;28;24468;-46
2022/05/01 10:22:04;;;;;;;16.13;14.63;;;;;;;;;;5081866;28;25070;-46
2022/05/01 10:24:29;;;;;;;14.60;13.30;;;;;;;;;;5086230;28;24405;-46
2022/05/01 10:26:59;;;;;;;16.57;14.87;;;;;;;;;;5086312;28;24447;-47
2022/05/01 10:29:34;;;;;;;14.35;13.05;;;;;;;;;;5085896;28;25309;-47
2022/05/01 10:32:24;;;;;;;14.82;13.32;;;;;;;;;;5084172;28;24443;-46
2022/05/01 10:34:52;;;;;;;14.20;12.80;;;;;;;;;;5065929;28;24694;-47
2022/05/01 10:37:28;;;;;;;13.05;11.85;;;;;;;;;;5066397;28;24418;-47
2022/05/01 10:39:54;;;;;;;12.13;10.65;;;;;;;;;;5066238;28;24387;-46
2022/05/01 10:42:33;;;;;;;14.30;13.00;;;;;;;;;;5072927;28;24421;-47
2022/05/01 10:44:58;;;;;;;13.23;11.93;;;;;;;;;;5090047;28;24959;-47
2022/05/01 10:47:34;;;;;;;10.80;9.90;;;;;;;;;;5090307;28;24402;-47
2022/05/01 10:50:05;;;;;;;11.60;10.43;;;;;;;;;;5089465;28;24459;-47
2022/05/01 10:52:30;;;;;;;11.18;10.00;;;;;;;;;;5088571;28;24540;-47
2022/05/01 10:55:01;;;;;;;11.10;10.00;;;;;;;;;;5084858;28;24518;-47
2022/05/01 10:57:26;;;;;;;11.87;10.77;;;;;;;;;;5089944;28;24387;-44
2022/05/01 11:00:11;;;;;;;10.03;9.13;;;;;;;;;;5086784;28;24487;-46
2022/05/01 11:02:38;;;;;;;10.20;9.30;;;;;;;;;;5081821;28;24541;-44
2022/05/01 11:05:04;;;;;;;11.60;10.60;;;;;;;;;;5086139;28;24418;-45
2022/05/01 11:07:30;;;;;;;11.60;9.70;;;;;;;;;;5078228;28;24423;-44
2022/05/01 11:09:57;;;;;;;9.90;9.00;;;;;;;;;;5083801;28;25052;-44
2022/05/01 11:12:22;;;;;;;10.48;9.48;;;;;;;;;;5085194;28;24434;-46
2022/05/01 11:14:53;;;;;;;9.43;8.60;;;;;;;;;;5088085;28;24405;-45
2022/05/01 11:17:37;;;;;;;9.53;8.73;;;;;;;;;;5087490;28;24437;-45
2022/05/01 11:20:11;;;;;;;8.25;7.47;;;;;;;;;;5080929;28;24445;-44
2022/05/01 11:22:36;;;;;;;8.70;6.70;;;;;;;;;;5085774;28;24452;-45
2022/05/01 11:25:02;;;;;;;8.80;8.00;;;;;;;;;;5087309;28;24829;-47
2022/05/01 11:27:45;;;;;;;7.78;7.10;;;;;;;;;;5085793;28;25055;-47
2022/05/01 11:30:12;;;;;;;7.90;7.10;;;;;;;;;;5087567;28;25101;-45
2022/05/01 11:32:44;;;;;;;8.38;7.57;;;;;;;;;;5080258;28;24419;-46
2022/05/01 11:35:11;;;;;;;7.90;7.20;;;;;;;;;;5079170;28;24532;-46
2022/05/01 11:37:46;;;;;;;7.68;6.97;;;;;;;;;;5084319;28;24429;-45
2022/05/01 11:40:17;;;;;;;7.10;6.40;;;;;;;;;;5089194;28;24391;-45
2022/05/01 11:42:43;;;;;;;7.50;6.80;;;;;;;;;;5088512;28;24552;-45
2022/05/01 11:45:10;;;;;;;9.70;8.80;;;;;;;;;;5089516;28;24508;-46
2022/05/01 11:47:36;;;;;;;9.85;8.93;;;;;;;;;;5087708;28;24878;-45
2022/05/01 11:50:01;;;;;;;9.40;8.50;;;;;;;;;;5086376;28;24583;-47
2022/05/01 11:52:27;;;;;;;8.70;7.90;;;;;;;;;;5079009;28;24421;-45
2022/05/01 11:54:53;;;;;;;7.33;6.73;;;;;;;;;;5078102;28;24425;-45
2022/05/01 12:03:06;;;;;;;7.90;7.20;;;;;;;;;;5087625;28;24434;-45
2022/05/01 12:05:33;;;;;;;7.82;7.13;;;;;;;;;;5079507;28;24785;-46
2022/05/01 12:07:59;;;;;;;8.30;7.60;;;;;;;;;;5081834;28;24418;-46
2022/05/01 12:10:24;;;;;;;9.02;8.13;;;;;;;;;;5087490;28;24826;-45
2022/05/01 12:12:49;;;;;;;7.80;7.20;;;;;;;;;;5086389;28;24427;-45
2022/05/01 12:15:15;;;;;;;8.50;7.70;;;;;;;;;;5084302;28;24512;-45
2022/05/01 12:17:41;;;;;;;10.30;9.40;;;;;;;;;;5086592;28;24505;-45
2022/05/01 12:20:07;;;;;;;10.40;9.48;;;;;;;;;;5085117;28;24441;-45
2022/05/01 12:22:37;;;;;;;10.18;8.98;;;;;;;;;;5086350;28;24913;-45
2022/05/01 12:25:02;;;;;;;9.52;8.73;;;;;;;;;;5081369;28;24417;-45
2022/05/01 12:27:29;;;;;;;9.87;9.07;;;;;;;;;;5086150;28;24426;-46
2022/05/01 12:29:55;;;;;;;9.30;8.50;;;;;;;;;;5085695;28;24506;-46
2022/05/01 12:32:21;;;;;;;8.73;8.03;;;;;;;;;;5087851;28;24820;-45
2022/05/01 12:34:46;;;;;;;9.90;8.90;;;;;;;;;;5084581;28;24982;-45
2022/05/01 12:37:12;;;;;;;9.95;9.07;;;;;;;;;;5083394;28;24425;-46
2022/05/01 12:39:38;;;;;;;10.43;9.52;;;;;;;;;;5083072;28;24426;-46
2022/05/01 12:45:03;;;;;;;12.75;11.65;;;;;;;;;;5084670;28;24866;-45
2022/05/01 12:47:30;;;;;;;10.80;10.00;;;;;;;;;;5085789;28;24972;-46
2022/05/01 12:49:55;;;;;;;9.30;8.50;;;;;;;;;;5085838;28;24457;-47
2022/05/01 12:52:33;;;;;;;10.50;9.70;;;;;;;;;;5074201;28;24429;-47
2022/05/01 12:55:16;;;;;;;11.90;10.80;;;;;;;;;;5076064;28;24484;-46
2022/05/01 12:57:41;;;;;;;11.70;10.70;;;;;;;;;;5082097;28;24551;-47
2022/05/01 13:00:10;;;;;;;11.93;10.93;;;;;;;;;;5084553;28;25102;-46
2022/05/01 13:02:35;;;;;;;10.03;9.23;;;;;;;;;;5080713;28;24565;-45
2022/05/01 13:05:04;;;;;;;11.37;10.40;;;;;;;;;;5082408;28;24899;-45
2022/05/01 13:07:35;;;;;;;10.73;9.83;;;;;;;;;;5082276;28;24414;-46
2022/05/01 13:10:04;;;;;;;10.55;9.65;;;;;;;;;;5086588;28;24884;-45
2022/05/01 13:12:30;;;;;;;10.40;9.50;;;;;;;;;;5085776;28;24426;-46
2022/05/01 13:15:02;;;;;;;8.43;7.72;;;;;;;;;;5082884;28;24808;-46
2022/05/01 13:17:27;;;;;;;7.43;6.80;;;;;;;;;;5081281;28;24776;-46
2022/05/01 13:19:52;;;;;;;7.63;6.93;;;;;;;;;;5081060;28;24425;-46
2022/05/01 13:22:18;;;;;;;6.83;6.30;;;;;;;;;;5079043;28;24437;-46
2022/05/01 13:24:44;;;;;;;7.40;6.27;;;;;;;;;;5078327;28;24569;-47
2022/05/01 13:27:11;;;;;;;6.30;5.80;;;;;;;;;;5077023;28;24423;-45
2022/05/01 13:29:37;;;;;;;5.63;5.10;;;;;;;;;;5074655;28;24431;-46
2022/05/01 13:32:05;;;;;;;7.78;7.07;;;;;;;;;;5078552;28;24421;-44
2022/05/01 13:34:31;;;;;;;8.60;7.90;;;;;;;;;;5087017;28;24401;-44
2022/05/01 13:36:57;;;;;;;7.23;6.70;;;;;;;;;;5085797;28;24418;-44
2022/05/01 13:39:22;;;;;;;7.50;6.90;;;;;;;;;;5072892;28;24426;-44
2022/05/01 13:44:54;;;;;;;6.53;6.03;;;;;;;;;;5084530;28;24777;-44
2022/05/01 13:47:20;;;;;;;5.22;4.82;;;;;;;;;;5081298;28;24522;-44
2022/05/01 13:49:45;;;;;;;5.50;4.80;;;;;;;;;;5084710;28;24510;-44
2022/05/01 13:52:10;;;;;;;4.90;4.50;;;;;;;;;;5079074;28;24476;-45
2022/05/01 13:54:36;;;;;;;5.10;4.50;;;;;;;;;;5076895;28;24912;-45
2022/05/01 13:57:02;;;;;;;5.60;5.07;;;;;;;;;;5084814;28;24418;-45
2022/05/01 13:59:27;;;;;;;4.70;4.15;;;;;;;;;;5068668;28;24430;-44
2022/05/01 14:01:56;;;;;;;5.17;4.67;;;;;;;;;;5082633;28;24849;-45
2022/05/01 14:04:21;;;;;;;5.10;4.60;;;;;;;;;;5083452;28;24474;-45
2022/05/01 14:06:47;;;;;;;4.60;4.20;;;;;;;;;;5076511;28;24467;-45
2022/05/01 14:09:17;;;;;;;4.60;4.20;;;;;;;;;;5083910;28;24972;-45
2022/05/01 14:11:42;;;;;;;5.32;4.50;;;;;;;;;;5084005;28;24457;-46
2022/05/01 14:14:07;;;;;;;4.30;4.00;;;;;;;;;;5083855;28;24477;-46
2022/05/01 14:16:32;;;;;;;4.55;4.15;;;;;;;;;;5083699;28;24414;-46
2022/05/01 14:18:58;;;;;;;5.72;4.70;;;;;;;;;;5084235;28;24958;-46
2022/05/01 14:21:25;;;;;;;4.50;4.10;;;;;;;;;;5083615;28;24418;-45
2022/05/01 14:23:50;;;;;;;4.80;4.40;;;;;;;;;;5088380;28;24501;-45
2022/05/01 14:26:15;;;;;;;4.90;4.40;;;;;;;;;;5083620;28;24551;-45
2022/05/01 14:28:41;;;;;;;4.60;4.20;;;;;;;;;;5085777;28;24406;-46
2022/05/01 14:31:07;;;;;;;3.97;3.57;;;;;;;;;;5088496;28;24441;-46
2022/05/01 14:33:55;;;;;;;4.60;4.20;;;;;;;;;;5086760;28;24418;-46
2022/05/01 14:36:22;;;;;;;4.63;4.22;;;;;;;;;;5088645;28;24422;-45
2022/05/01 14:39:10;;;;;;;4.40;4.10;;;;;;;;;;5086160;28;24995;-45
2022/05/01 14:41:41;;;;;;;3.92;3.63;;;;;;;;;;5074217;28;24433;-45
2022/05/01 14:44:07;;;;;;;4.82;4.32;;;;;;;;;;5088799;28;24414;-45